createdAt,value
2019-01-06T00:01:53.323Z,61.20
2019-01-06T00:04:52.038Z,62.20
2019-01-06T00:07:39.403Z,62.10
2019-01-06T00:10:21.970Z,61.20
2019-01-06T00:13:10.703Z,62.00
2019-01-06T00:16:14.635Z,61.70
2019-01-06T00:19:06.179Z,61.60
2019-01-06T00:21:52.251Z,61.50
2019-01-06T00:24:39.421Z,61.80
2019-01-06T00:27:26.522Z,62.10
2019-01-06T00:30:13.922Z,62.00
2019-01-06T00:33:11.851Z,62.20
2019-01-06T00:36:09.355Z,61.50
2019-01-06T00:39:00.866Z,62.00
2019-01-06T00:41:55.915Z,61.80
2019-01-06T00:44:43.143Z,61.30
2019-01-06T00:47:26.047Z,61.70
2019-01-06T00:50:13.230Z,61.60
2019-01-06T00:53:05.611Z,61.40
2019-01-06T00:55:58.799Z,61.10
2019-01-06T00:58:56.643Z,60.50
2019-01-06T01:01:54.431Z,60.40
2019-01-06T01:04:41.887Z,60.20
2019-01-06T01:07:29.297Z,60.80
2019-01-06T01:10:30.687Z,60.40
2019-01-06T01:13:25.188Z,59.60
2019-01-06T01:16:12.406Z,59.90
2019-01-06T01:19:19.423Z,61.00
2019-01-06T01:22:04.859Z,61.00
2019-01-06T01:24:50.859Z,61.00
2019-01-06T01:27:33.250Z,60.40
2019-01-06T01:30:20.762Z,61.10
2019-01-06T01:33:13.866Z,61.10
2019-01-06T01:36:14.875Z,60.90
2019-01-06T01:39:01.998Z,61.70
2019-01-06T01:41:51.174Z,61.40
2019-01-06T01:44:38.803Z,61.00
2019-01-06T01:47:37.250Z,60.70
2019-01-06T01:50:32.919Z,60.90
2019-01-06T01:53:21.763Z,61.80
2019-01-06T01:56:21.030Z,61.10
2019-01-06T01:59:09.758Z,61.10
2019-01-06T02:01:57.211Z,60.90
2019-01-06T02:04:44.391Z,60.70
2019-01-06T02:07:31.919Z,61.10
2019-01-06T02:10:38.660Z,60.80
2019-01-06T02:13:39.263Z,60.80
2019-01-06T02:16:26.461Z,60.70
2019-01-06T02:19:33.369Z,60.70
2019-01-06T02:22:21.738Z,61.00
2019-01-06T02:25:04.332Z,60.30
2019-01-06T02:27:51.851Z,61.10
2019-01-06T02:30:49.743Z,61.20
2019-01-06T02:33:53.326Z,61.30
2019-01-06T02:36:46.176Z,61.50
2019-01-06T02:39:33.466Z,60.80
2019-01-06T02:42:31.120Z,60.50
2019-01-06T02:45:25.007Z,61.10
2019-01-06T02:48:28.654Z,61.00
2019-01-06T02:51:23.254Z,61.70
2019-01-06T02:54:15.471Z,61.40
2019-01-06T02:57:13.293Z,61.30
2019-01-06T03:00:00.510Z,61.40
2019-01-06T03:02:47.811Z,61.40
2019-01-06T03:05:48.726Z,61.10
2019-01-06T03:08:29.067Z,61.70
2019-01-06T03:11:36.042Z,61.40
2019-01-06T03:14:21.410Z,61.30
2019-01-06T03:17:08.694Z,61.30
2019-01-06T03:19:55.938Z,61.30
2019-01-06T03:22:43.002Z,60.70
2019-01-06T03:25:30.131Z,60.90
2019-01-06T03:28:21.706Z,61.30
2019-01-06T03:31:10.454Z,62.00
2019-01-06T03:34:07.199Z,61.80
2019-01-06T03:37:11.074Z,61.90
2019-01-06T03:39:57.171Z,61.50
2019-01-06T03:42:48.064Z,62.10
2019-01-06T03:45:39.884Z,61.60
2019-01-06T03:48:27.067Z,61.80
2019-01-06T03:51:12.600Z,62.10
2019-01-06T03:53:59.763Z,62.10
2019-01-06T03:56:54.342Z,62.20
2019-01-06T03:59:37.234Z,62.20
2019-01-06T04:02:24.675Z,61.50
2019-01-06T04:05:16.966Z,62.20
2019-01-06T04:08:06.143Z,61.60
2019-01-06T04:10:57.724Z,61.20
2019-01-06T04:13:46.518Z,61.90
2019-01-06T04:16:33.648Z,61.30
2019-01-06T04:19:16.744Z,61.40
2019-01-06T04:22:04.332Z,61.70
2019-01-06T04:24:52.395Z,62.00
2019-01-06T04:27:39.988Z,61.60
2019-01-06T04:30:30.419Z,62.00
2019-01-06T04:33:17.894Z,62.00
2019-01-06T04:36:22.734Z,62.20
2019-01-06T04:39:14.542Z,61.90
2019-01-06T04:42:12.390Z,62.40
2019-01-06T04:45:01.163Z,62.00
2019-01-06T04:47:49.575Z,63.00
2019-01-06T04:50:38.452Z,62.90
2019-01-06T04:53:30.098Z,63.10
2019-01-06T04:56:17.455Z,62.70
2019-01-06T04:59:04.658Z,63.00
2019-01-06T05:01:51.862Z,63.30
2019-01-06T05:04:49.741Z,63.00
2019-01-06T05:07:37.158Z,62.30
2019-01-06T05:10:15.006Z,63.20
2019-01-06T05:12:57.728Z,63.70
2019-01-06T05:15:47.175Z,63.30
2019-01-06T05:18:54.170Z,63.40
2019-01-06T05:21:45.668Z,62.80
2019-01-06T05:24:34.452Z,63.50
2019-01-06T05:27:21.603Z,63.00
2019-01-06T05:30:15.518Z,64.00
2019-01-06T05:32:56.945Z,63.70
2019-01-06T05:35:45.311Z,63.60
2019-01-06T05:38:45.856Z,63.50
2019-01-06T05:41:40.421Z,63.80
2019-01-06T05:44:35.130Z,64.00
2019-01-06T05:47:23.850Z,64.40
2019-01-06T05:50:08.721Z,65.80
2019-01-06T05:52:52.123Z,64.20
2019-01-06T05:55:33.382Z,63.50
2019-01-06T05:58:20.751Z,62.90
2019-01-06T06:01:09.486Z,62.90
2019-01-06T06:03:56.652Z,63.00
2019-01-06T06:06:43.926Z,62.50
2019-01-06T06:09:32.672Z,62.30
2019-01-06T06:12:17.815Z,62.20
2019-01-06T06:15:05.291Z,62.30
2019-01-06T06:18:05.151Z,61.90
2019-01-06T06:20:50.307Z,61.90
2019-01-06T06:23:30.950Z,62.70
2019-01-06T06:26:29.371Z,62.70
2019-01-06T06:29:10.931Z,62.50
2019-01-06T06:31:58.370Z,64.20
2019-01-06T06:34:45.770Z,65.50
2019-01-06T06:37:40.422Z,65.50
2019-01-06T06:40:27.804Z,64.80
2019-01-06T06:43:10.497Z,64.80
2019-01-06T06:46:04.874Z,63.80
2019-01-06T06:48:46.947Z,64.80
2019-01-06T06:51:35.738Z,64.40
2019-01-06T06:54:24.472Z,62.70
2019-01-06T06:57:48.760Z,63.00
2019-01-06T07:00:53.016Z,63.10
2019-01-06T07:03:54.467Z,62.10
2019-01-06T07:06:40.654Z,62.00
2019-01-06T07:09:28.048Z,61.10
2019-01-06T07:12:13.613Z,61.90
2019-01-06T07:15:00.812Z,61.30
2019-01-06T07:18:27.144Z,61.20
2019-01-06T07:21:15.879Z,61.20
2019-01-06T07:23:59.640Z,61.70
2019-01-06T07:26:51.296Z,61.20
2019-01-06T07:29:57.956Z,61.20
2019-01-06T07:32:49.803Z,60.90
2019-01-06T07:35:29.403Z,60.50
2019-01-06T07:38:21.275Z,60.30
2019-01-06T07:41:08.651Z,60.40
2019-01-06T07:43:57.391Z,60.50
2019-01-06T07:46:44.759Z,60.40
2019-01-06T07:49:36.356Z,60.20
2019-01-06T07:52:34.196Z,60.70
2019-01-06T07:55:34.931Z,60.70
2019-01-06T07:58:26.467Z,60.50
2019-01-06T08:01:13.716Z,60.50
2019-01-06T08:04:10.384Z,60.50
2019-01-06T08:06:57.491Z,60.40
2019-01-06T08:09:45.086Z,60.50
2019-01-06T08:12:37.859Z,60.70
2019-01-06T08:15:25.159Z,60.40
2019-01-06T08:18:27.716Z,60.90
2019-01-06T08:21:18.263Z,60.50
2019-01-06T08:24:07.003Z,60.50
2019-01-06T08:26:54.160Z,60.10
2019-01-06T08:29:41.558Z,60.00
2019-01-06T08:32:21.143Z,60.00
2019-01-06T08:35:15.956Z,59.90
2019-01-06T08:38:16.782Z,59.70
2019-01-06T08:40:53.543Z,59.70
2019-01-06T08:43:45.079Z,59.70
2019-01-06T08:46:32.309Z,59.70
2019-01-06T08:49:25.087Z,60.00
2019-01-06T08:52:25.993Z,60.40
2019-01-06T08:55:13.174Z,61.60
2019-01-06T08:58:00.594Z,61.80
2019-01-06T09:00:47.938Z,61.10
2019-01-06T09:03:39.443Z,60.90
2019-01-06T09:06:24.583Z,60.70
2019-01-06T09:09:13.386Z,60.90
2019-01-06T09:12:00.750Z,60.20
2019-01-06T09:14:47.838Z,59.50
2019-01-06T09:17:35.331Z,59.60
2019-01-06T09:20:23.206Z,59.60
2019-01-06T09:23:20.951Z,59.20
2019-01-06T09:26:10.055Z,59.50
2019-01-06T09:28:54.875Z,58.70
2019-01-06T09:32:02.286Z,58.60
2019-01-06T09:34:57.403Z,58.50
2019-01-06T09:37:45.978Z,58.80
2019-01-06T09:40:33.544Z,58.90
2019-01-06T09:43:31.766Z,58.40
2019-01-06T09:46:11.491Z,58.10
2019-01-06T09:49:06.120Z,58.40
2019-01-06T09:51:53.623Z,58.20
2019-01-06T09:54:42.358Z,58.60
2019-01-06T09:57:29.462Z,58.80
2019-01-06T10:00:15.423Z,58.90
2019-01-06T10:03:13.381Z,58.60
2019-01-06T10:06:02.119Z,58.60
2019-01-06T10:08:51.227Z,58.90
2019-01-06T10:11:41.402Z,59.70
2019-01-06T10:14:31.482Z,62.60
2019-01-06T10:17:26.351Z,62.60
2019-01-06T10:20:15.099Z,62.30
2019-01-06T10:23:02.211Z,61.90
2019-01-06T10:25:49.335Z,62.40
2019-01-06T10:28:36.891Z,62.20
2019-01-06T10:31:24.395Z,60.90
2019-01-06T10:34:08.258Z,60.90
2019-01-06T10:36:56.371Z,62.30
2019-01-06T10:39:49.159Z,62.10
2019-01-06T10:42:37.275Z,62.40
2019-01-06T10:45:24.830Z,62.00
2019-01-06T10:48:28.490Z,61.20
2019-01-06T10:51:15.926Z,61.30
2019-01-06T10:54:08.420Z,60.90
2019-01-06T10:56:53.468Z,60.20
2019-01-06T10:59:48.285Z,60.10
2019-01-06T11:02:35.670Z,60.20
2019-01-06T11:05:30.366Z,60.00
2019-01-06T11:08:19.118Z,60.10
2019-01-06T11:11:06.298Z,60.20
2019-01-06T11:13:53.518Z,60.20
2019-01-06T11:16:36.431Z,61.10
2019-01-06T11:19:27.991Z,61.30
2019-01-06T11:22:14.067Z,61.10
2019-01-06T11:25:09.018Z,60.40
2019-01-06T11:28:04.122Z,60.40
2019-01-06T11:30:59.002Z,60.30
2019-01-06T11:33:42.446Z,60.60
2019-01-06T11:36:41.719Z,60.60
2019-01-06T11:39:33.460Z,60.30
2019-01-06T11:42:22.203Z,60.30
2019-01-06T11:45:13.762Z,60.10
2019-01-06T11:48:00.963Z,60.70
2019-01-06T11:50:49.702Z,60.10
2019-01-06T11:53:30.389Z,60.50
2019-01-06T11:56:24.426Z,60.70
2019-01-06T11:59:13.151Z,60.90
2019-01-06T12:02:01.899Z,59.70
2019-01-06T12:04:54.458Z,60.00
2019-01-06T12:07:41.922Z,59.70
2019-01-06T12:10:28.543Z,59.80
2019-01-06T12:13:15.735Z,59.80
2019-01-06T12:16:03.313Z,59.10
2019-01-06T12:19:00.832Z,59.60
2019-01-06T12:21:51.975Z,59.70
2019-01-06T12:24:46.531Z,60.10
2019-01-06T12:27:28.814Z,60.00
2019-01-06T12:30:15.735Z,59.80
2019-01-06T12:33:07.122Z,60.00
2019-01-06T12:36:11.071Z,59.80
2019-01-06T12:39:02.464Z,59.70
2019-01-06T12:41:49.871Z,59.30
2019-01-06T12:44:47.363Z,59.80
2019-01-06T12:47:34.799Z,59.80
2019-01-06T12:50:18.710Z,59.50
2019-01-06T12:53:16.603Z,59.50
2019-01-06T12:56:05.344Z,59.30
2019-01-06T12:59:12.306Z,59.80
2019-01-06T13:01:52.410Z,59.70
2019-01-06T13:04:53.146Z,59.30
2019-01-06T13:07:48.325Z,59.20
2019-01-06T13:10:46.506Z,59.40
2019-01-06T13:13:37.077Z,58.70
2019-01-06T13:16:26.050Z,59.10
2019-01-06T13:19:13.559Z,58.90
2019-01-06T13:22:01.910Z,58.90
2019-01-06T13:24:50.510Z,59.20
2019-01-06T13:27:37.671Z,59.10
2019-01-06T13:30:36.894Z,59.10
2019-01-06T13:33:27.575Z,58.90
2019-01-06T13:36:11.431Z,59.50
2019-01-06T13:38:59.255Z,59.30
2019-01-06T13:41:40.817Z,60.20
2019-01-06T13:44:26.871Z,59.60
2019-01-06T13:47:33.927Z,59.30
2019-01-06T13:50:21.532Z,59.20
2019-01-06T13:53:08.935Z,59.20
2019-01-06T13:55:56.158Z,59.30
2019-01-06T13:58:43.343Z,58.90
2019-01-06T14:01:41.064Z,59.40
2019-01-06T14:04:41.794Z,59.50
2019-01-06T14:07:24.214Z,60.70
2019-01-06T14:10:15.763Z,61.00
2019-01-06T14:13:03.357Z,61.70
2019-01-06T14:15:50.495Z,61.60
2019-01-06T14:18:37.395Z,60.60
2019-01-06T14:21:44.362Z,60.30
2019-01-06T14:24:31.454Z,59.70
2019-01-06T14:27:35.227Z,60.30
2019-01-06T14:30:23.144Z,62.40
2019-01-06T14:33:10.575Z,61.90
2019-01-06T14:35:58.071Z,61.00
2019-01-06T14:38:45.691Z,60.50
2019-01-06T14:41:33.136Z,60.00
2019-01-06T14:44:20.311Z,59.80
2019-01-06T14:47:07.436Z,59.70
2019-01-06T14:49:54.535Z,59.90
2019-01-06T14:52:40.682Z,59.80
2019-01-06T14:55:32.556Z,59.40
2019-01-06T14:58:21.309Z,59.00
2019-01-06T15:01:07.603Z,59.10
2019-01-06T15:03:52.103Z,59.00
2019-01-06T15:06:40.847Z,59.00
2019-01-06T15:09:31.696Z,58.80
2019-01-06T15:12:23.451Z,58.70
2019-01-06T15:15:19.696Z,59.20
2019-01-06T15:18:06.951Z,59.10
2019-01-06T15:20:54.317Z,58.80
2019-01-06T15:23:41.482Z,58.70
2019-01-06T15:26:39.398Z,59.20
2019-01-06T15:29:26.783Z,58.70
2019-01-06T15:32:15.035Z,59.00
2019-01-06T15:35:03.259Z,58.00
2019-01-06T15:37:54.783Z,58.70
2019-01-06T15:40:58.516Z,58.90
2019-01-06T15:43:53.510Z,58.70
2019-01-06T15:46:48.371Z,58.60
2019-01-06T15:49:40.771Z,58.60
2019-01-06T15:52:26.200Z,58.80
2019-01-06T15:55:29.807Z,58.70
2019-01-06T15:58:18.567Z,58.60
2019-01-06T16:01:06.375Z,58.90
2019-01-06T16:03:55.250Z,58.90
2019-01-06T16:06:49.235Z,58.90
2019-01-06T16:09:49.887Z,59.00
2019-01-06T16:12:32.103Z,58.40
2019-01-06T16:15:19.259Z,58.70
2019-01-06T16:18:10.830Z,58.30
2019-01-06T16:21:05.354Z,58.80
2019-01-06T16:23:52.535Z,59.20
2019-01-06T16:26:44.035Z,58.20
2019-01-06T16:29:35.611Z,58.80
2019-01-06T16:32:19.903Z,58.70
2019-01-06T16:35:07.314Z,58.50
2019-01-06T16:37:54.752Z,58.70
2019-01-06T16:40:58.678Z,59.30
2019-01-06T16:43:50.318Z,59.10
2019-01-06T16:46:44.999Z,58.60
2019-01-06T16:49:36.939Z,58.90
2019-01-06T16:52:24.429Z,58.90
2019-01-06T16:55:22.319Z,58.70
2019-01-06T16:58:14.086Z,58.40
2019-01-06T17:01:14.723Z,58.40
2019-01-06T17:04:01.911Z,58.70
2019-01-06T17:06:56.670Z,58.50
2019-01-06T17:09:50.550Z,58.30
2019-01-06T17:12:39.302Z,58.40
2019-01-06T17:15:18.383Z,59.00
2019-01-06T17:18:15.958Z,58.80
2019-01-06T17:21:10.615Z,60.40
2019-01-06T17:24:06.842Z,61.40
2019-01-06T17:27:00.515Z,60.40
2019-01-06T17:29:47.914Z,59.80
2019-01-06T17:32:35.094Z,59.50
2019-01-06T17:35:27.090Z,59.00
2019-01-06T17:38:14.290Z,59.40
2019-01-06T17:41:03.139Z,59.30
2019-01-06T17:44:01.046Z,59.00
2019-01-06T17:46:53.890Z,58.50
2019-01-06T17:49:50.503Z,58.60
2019-01-06T17:52:40.999Z,59.20
2019-01-06T17:55:28.201Z,60.40
2019-01-06T17:58:14.407Z,60.40
2019-01-06T18:01:02.166Z,60.00
2019-01-06T18:03:46.703Z,59.80
2019-01-06T18:06:35.118Z,59.40
2019-01-06T18:09:24.896Z,59.10
2019-01-06T18:12:13.646Z,59.10
2019-01-06T18:15:14.442Z,58.90
2019-01-06T18:18:02.850Z,59.00
2019-01-06T18:20:52.474Z,58.70
2019-01-06T18:23:39.467Z,58.40
2019-01-06T18:26:34.318Z,58.80
2019-01-06T18:29:20.462Z,58.70
2019-01-06T18:32:19.910Z,58.90
2019-01-06T18:35:07.031Z,58.80
2019-01-06T18:38:03.546Z,58.70
2019-01-06T18:40:58.354Z,59.10
2019-01-06T18:43:47.095Z,59.20
2019-01-06T18:46:44.862Z,59.40
2019-01-06T18:49:26.744Z,59.30
2019-01-06T18:52:09.778Z,59.30
2019-01-06T18:54:56.347Z,59.20
2019-01-06T18:57:53.863Z,59.60
2019-01-06T19:00:34.920Z,59.90
2019-01-06T19:03:29.995Z,59.10
2019-01-06T19:06:33.867Z,59.10
2019-01-06T19:09:26.792Z,59.10
2019-01-06T19:12:09.300Z,58.90
2019-01-06T19:14:50.606Z,58.90
2019-01-06T19:17:40.777Z,59.20
2019-01-06T19:20:40.934Z,59.10
2019-01-06T19:23:28.394Z,59.00
2019-01-06T19:26:15.794Z,59.00
2019-01-06T19:29:08.225Z,59.10
2019-01-06T19:32:12.834Z,59.10
2019-01-06T19:35:00.011Z,59.10
2019-01-06T19:38:03.944Z,58.90
2019-01-06T19:40:51.258Z,59.10
2019-01-06T19:43:46.079Z,58.90
2019-01-06T19:46:46.783Z,58.50
2019-01-06T19:49:33.874Z,59.30
2019-01-06T19:52:15.823Z,59.40
2019-01-06T19:55:10.607Z,59.10
2019-01-06T19:58:08.222Z,59.00
2019-01-06T20:00:59.891Z,58.80
2019-01-06T20:03:57.835Z,58.70
2019-01-06T20:06:53.263Z,59.00
2019-01-06T20:09:40.490Z,58.50
2019-01-06T20:12:32.268Z,58.90
2019-01-06T20:15:21.007Z,58.70
2019-01-06T20:18:07.657Z,58.60
2019-01-06T20:21:08.386Z,58.60
2019-01-06T20:23:57.119Z,58.20
2019-01-06T20:27:00.748Z,58.00
2019-01-06T20:30:01.483Z,58.30
2019-01-06T20:32:45.690Z,58.00
2019-01-06T20:35:40.546Z,57.90
2019-01-06T20:38:28.053Z,57.70
2019-01-06T20:41:18.854Z,57.60
2019-01-06T20:44:13.487Z,57.50
2019-01-06T20:47:00.991Z,57.70
2019-01-06T20:49:52.499Z,57.60
2019-01-06T20:52:41.985Z,57.40
2019-01-06T20:55:35.159Z,57.40
2019-01-06T20:58:23.910Z,57.20
2019-01-06T21:01:12.760Z,57.20
2019-01-06T21:04:07.544Z,57.40
2019-01-06T21:06:54.722Z,57.10
2019-01-06T21:09:46.250Z,57.40
2019-01-06T21:12:30.030Z,57.40
2019-01-06T21:15:24.559Z,57.30
2019-01-06T21:18:12.003Z,57.30
2019-01-06T21:20:59.492Z,57.30
2019-01-06T21:23:42.714Z,57.70
2019-01-06T21:26:40.139Z,57.40
2019-01-06T21:29:27.818Z,57.90
2019-01-06T21:32:22.474Z,57.90
2019-01-06T21:35:09.958Z,57.60
2019-01-06T21:38:04.467Z,57.40
2019-01-06T21:40:56.293Z,57.70
2019-01-06T21:43:45.034Z,57.50
2019-01-06T21:46:42.631Z,57.20
2019-01-06T21:49:26.684Z,57.50
2019-01-06T21:52:04.164Z,58.00
2019-01-06T21:54:51.568Z,59.00
2019-01-06T21:57:34.658Z,58.80
2019-01-06T22:00:22.386Z,58.40
2019-01-06T22:03:17.134Z,58.50
2019-01-06T22:06:08.654Z,58.40
2019-01-06T22:08:56.109Z,58.50
2019-01-06T22:11:42.560Z,58.30
2019-01-06T22:14:30.130Z,58.30
2019-01-06T22:17:21.178Z,58.40
2019-01-06T22:20:04.062Z,58.50
2019-01-06T22:22:53.756Z,58.60
2019-01-06T22:25:30.945Z,58.50
2019-01-06T22:28:24.239Z,58.40
2019-01-06T22:31:11.771Z,58.60
2019-01-06T22:33:59.191Z,58.80
2019-01-06T22:36:46.444Z,58.70
2019-01-06T22:39:34.599Z,58.70
2019-01-06T22:42:23.425Z,58.80
2019-01-06T22:45:15.203Z,59.30
2019-01-06T22:48:19.763Z,59.30
2019-01-06T22:51:14.583Z,59.00
2019-01-06T22:54:01.717Z,59.10
2019-01-06T22:56:49.078Z,59.30
2019-01-06T22:59:55.778Z,59.30
2019-01-06T23:02:44.555Z,59.30
2019-01-06T23:05:42.949Z,59.30
2019-01-06T23:08:31.331Z,59.10
2019-01-06T23:11:18.827Z,59.00
2019-01-06T23:14:06.267Z,59.70
2019-01-06T23:16:58.042Z,59.80
2019-01-06T23:19:51.807Z,59.20
2019-01-06T23:22:38.703Z,59.10
2019-01-06T23:25:45.618Z,60.00
2019-01-06T23:28:31.631Z,59.90
2019-01-06T23:31:19.216Z,60.30
2019-01-06T23:34:05.954Z,59.50
2019-01-06T23:36:53.161Z,59.20
2019-01-06T23:39:50.915Z,58.40
2019-01-06T23:42:38.350Z,58.80
2019-01-06T23:45:26.087Z,58.30
2019-01-06T23:48:12.758Z,58.50
2019-01-06T23:50:50.958Z,59.30
2019-01-06T23:53:45.495Z,60.00
2019-01-06T23:56:32.882Z,60.20
2019-01-06T23:59:33.867Z,59.60
